Amelia, Virginia
Current Conditions -  °F | °C
As of 3:35 AM on Tuesday 21 Oct 2014 (Local Time) from KW81 Reporting Station
Overcast Overcast  
Wind Chill: 12°   Ceiling: 12000
Heat Index: 12°   Visibility: 10mi
Dew Point:   Wind: 0mph
Humidity: 78%   Direction: NA
Pressure: 29.9"   Gusts: NA
Location:  37.3498°N, 77.9661°W
Report Text: KW81 210735Z AUTO 00000KT 10SM OVC120 12/09 A2990 RMK AO1 T01240087
Loading
Personal Weather Stations






























Interactive Weather Map
Tropical Storm Tracking
New forecast layout! Learn more

10-Day Weather Forecast

Advertisements
Track Severe Weather on mobile